FMNM/MJN METAR and TAF weather

Enter ICAO airport designator
Station Type Date Time Source
FMNM METAR 2020/07/07 00:00 UTC NOAA

FMNM 070000Z 16005KT 140V200 9999 FEW040 22/14 Q1014


Station Type Date Time Source
FMNM Decoded METAR 2020/07/07 00:00 UTC NOAA

Majunga, Madagascar (FMNM) 15-40S 046-21E 18M
Jul 06, 2020 - 08:00 PM EDT / 2020.07.07 0000 UTC
Wind: from the SSE (160 degrees) at 6 MPH (5 KT) (direction variable):0
Visibility: greater than 7 mile(s):0
Sky conditions: mostly clear
Temperature: 71 F (22 C)
Dew Point: 57 F (14 C)
Relative Humidity: 60%
Pressure (altimeter): 29.94 in. Hg (1014 hPa)
ob: FMNM 070000Z 16005KT 140V200 9999 FEW040 22/14 Q1014
cycle: 0

Station Type Date Time Source
FMNM TAF 2020/07/06 18:08 UTC NOAA

TAF FMNM 061700Z 0618/0718 09005KT 9999 FEW020

Example: see airport list